sensor_id;sensor_type;location;lat;lon;timestamp;P1;durP1;ratioP1;P2;durP2;ratioP2
6131;SDS011;3097;42.692;23.278;2023-07-31T00:02:01;3.80;;;3.50;;
6131;SDS011;3097;42.692;23.278;2023-07-31T00:04:27;3.77;;;3.57;;
6131;SDS011;3097;42.692;23.278;2023-07-31T00:06:52;3.80;;;3.60;;
6131;SDS011;3097;42.692;23.278;2023-07-31T00:09:18;4.23;;;3.83;;
6131;SDS011;3097;42.692;23.278;2023-07-31T00:11:43;3.70;;;3.40;;
6131;SDS011;3097;42.692;23.278;2023-07-31T00:14:10;3.50;;;3.30;;
6131;SDS011;3097;42.692;23.278;2023-07-31T00:16:35;3.50;;;3.30;;
6131;SDS011;3097;42.692;23.278;2023-07-31T00:19:00;4.07;;;3.77;;
6131;SDS011;3097;42.692;23.278;2023-07-31T00:21:26;4.20;;;3.80;;
6131;SDS011;3097;42.692;23.278;2023-07-31T00:23:51;4.93;;;4.43;;
6131;SDS011;3097;42.692;23.278;2023-07-31T00:26:17;4.60;;;4.20;;
6131;SDS011;3097;42.692;23.278;2023-07-31T00:28:42;4.40;;;4.10;;
6131;SDS011;3097;42.692;23.278;2023-07-31T00:31:08;4.80;;;4.40;;
6131;SDS011;3097;42.692;23.278;2023-07-31T00:33:34;5.10;;;4.70;;
6131;SDS011;3097;42.692;23.278;2023-07-31T00:36:00;4.70;;;4.40;;
6131;SDS011;3097;42.692;23.278;2023-07-31T00:38:25;4.47;;;4.17;;
6131;SDS011;3097;42.692;23.278;2023-07-31T00:40:51;4.90;;;4.60;;
6131;SDS011;3097;42.692;23.278;2023-07-31T00:43:16;4.77;;;4.47;;
6131;SDS011;3097;42.692;23.278;2023-07-31T00:45:42;5.60;;;5.20;;
6131;SDS011;3097;42.692;23.278;2023-07-31T00:48:07;6.17;;;5.73;;
6131;SDS011;3097;42.692;23.278;2023-07-31T00:50:33;6.10;;;5.63;;
6131;SDS011;3097;42.692;23.278;2023-07-31T00:53:00;6.70;;;6.10;;
6131;SDS011;3097;42.692;23.278;2023-07-31T00:55:25;6.37;;;5.87;;
6131;SDS011;3097;42.692;23.278;2023-07-31T00:57:51;6.90;;;6.27;;
6131;SDS011;3097;42.692;23.278;2023-07-31T01:00:18;19.47;;;14.17;;
6131;SDS011;3097;42.692;23.278;2023-07-31T01:02:43;26.73;;;19.70;;
6131;SDS011;3097;42.692;23.278;2023-07-31T01:05:09;34.13;;;23.33;;
6131;SDS011;3097;42.692;23.278;2023-07-31T01:12:36;29.77;;;22.03;;
6131;SDS011;3097;42.692;23.278;2023-07-31T01:15:07;38.90;;;27.73;;
6131;SDS011;3097;42.692;23.278;2023-07-31T01:17:37;32.83;;;23.67;;
6131;SDS011;3097;42.692;23.278;2023-07-31T01:20:04;58.70;;;38.60;;
6131;SDS011;3097;42.692;23.278;2023-07-31T01:25:32;26.73;;;20.10;;
6131;SDS011;3097;42.692;23.278;2023-07-31T01:28:05;19.97;;;15.67;;
6131;SDS011;3097;42.692;23.278;2023-07-31T01:30:36;31.10;;;21.83;;
6131;SDS011;3097;42.692;23.278;2023-07-31T01:33:06;49.23;;;33.30;;
6131;SDS011;3097;42.692;23.278;2023-07-31T01:35:33;52.43;;;34.37;;
6131;SDS011;3097;42.692;23.278;2023-07-31T01:38:00;70.57;;;44.83;;
6131;SDS011;3097;42.692;23.278;2023-07-31T01:40:25;54.80;;;34.83;;
6131;SDS011;3097;42.692;23.278;2023-07-31T01:42:51;52.77;;;33.60;;
6131;SDS011;3097;42.692;23.278;2023-07-31T01:45:16;30.43;;;19.53;;
6131;SDS011;3097;42.692;23.278;2023-07-31T01:47:41;22.33;;;16.17;;
6131;SDS011;3097;42.692;23.278;2023-07-31T01:50:07;25.50;;;18.83;;
6131;SDS011;3097;42.692;23.278;2023-07-31T01:52:33;23.40;;;15.57;;
6131;SDS011;3097;42.692;23.278;2023-07-31T01:54:58;20.17;;;14.20;;
6131;SDS011;3097;42.692;23.278;2023-07-31T01:57:24;18.70;;;14.57;;
6131;SDS011;3097;42.692;23.278;2023-07-31T01:59:49;18.07;;;13.97;;
6131;SDS011;3097;42.692;23.278;2023-07-31T02:02:15;15.80;;;13.67;;
6131;SDS011;3097;42.692;23.278;2023-07-31T02:04:41;19.23;;;13.77;;
6131;SDS011;3097;42.692;23.278;2023-07-31T02:07:06;16.40;;;13.87;;
6131;SDS011;3097;42.692;23.278;2023-07-31T02:09:32;14.30;;;12.43;;
6131;SDS011;3097;42.692;23.278;2023-07-31T02:11:57;16.67;;;13.27;;
6131;SDS011;3097;42.692;23.278;2023-07-31T02:14:23;16.63;;;13.13;;
6131;SDS011;3097;42.692;23.278;2023-07-31T02:16:49;16.73;;;14.30;;
6131;SDS011;3097;42.692;23.278;2023-07-31T02:19:14;17.57;;;14.17;;
6131;SDS011;3097;42.692;23.278;2023-07-31T02:21:40;17.20;;;13.87;;
6131;SDS011;3097;42.692;23.278;2023-07-31T02:24:05;18.83;;;14.17;;
6131;SDS011;3097;42.692;23.278;2023-07-31T02:26:30;17.27;;;14.07;;
6131;SDS011;3097;42.692;23.278;2023-07-31T02:28:56;17.67;;;14.23;;
6131;SDS011;3097;42.692;23.278;2023-07-31T02:31:21;16.60;;;13.23;;
6131;SDS011;3097;42.692;23.278;2023-07-31T02:33:47;17.13;;;13.93;;
6131;SDS011;3097;42.692;23.278;2023-07-31T02:36:12;19.40;;;14.63;;
6131;SDS011;3097;42.692;23.278;2023-07-31T02:38:39;16.87;;;14.20;;
6131;SDS011;3097;42.692;23.278;2023-07-31T02:41:05;17.37;;;13.87;;
6131;SDS011;3097;42.692;23.278;2023-07-31T02:43:30;18.57;;;13.87;;
6131;SDS011;3097;42.692;23.278;2023-07-31T02:45:56;19.37;;;14.80;;
6131;SDS011;3097;42.692;23.278;2023-07-31T02:48:21;20.03;;;13.87;;
6131;SDS011;3097;42.692;23.278;2023-07-31T02:50:47;16.93;;;13.83;;
6131;SDS011;3097;42.692;23.278;2023-07-31T02:53:13;16.07;;;13.40;;
6131;SDS011;3097;42.692;23.278;2023-07-31T02:55:38;16.73;;;13.97;;
6131;SDS011;3097;42.692;23.278;2023-07-31T02:58:04;16.57;;;14.03;;
6131;SDS011;3097;42.692;23.278;2023-07-31T03:00:29;18.87;;;14.23;;
6131;SDS011;3097;42.692;23.278;2023-07-31T03:02:55;16.07;;;13.50;;
6131;SDS011;3097;42.692;23.278;2023-07-31T03:05:20;18.93;;;13.57;;
6131;SDS011;3097;42.692;23.278;2023-07-31T03:07:46;17.53;;;12.90;;
6131;SDS011;3097;42.692;23.278;2023-07-31T03:10:11;17.80;;;13.97;;
6131;SDS011;3097;42.692;23.278;2023-07-31T03:12:37;18.67;;;14.27;;
6131;SDS011;3097;42.692;23.278;2023-07-31T03:15:02;17.20;;;14.13;;
6131;SDS011;3097;42.692;23.278;2023-07-31T03:17:28;18.53;;;13.90;;
6131;SDS011;3097;42.692;23.278;2023-07-31T03:19:53;16.23;;;13.40;;
6131;SDS011;3097;42.692;23.278;2023-07-31T03:22:19;19.00;;;14.30;;
6131;SDS011;3097;42.692;23.278;2023-07-31T03:24:44;18.87;;;15.23;;
6131;SDS011;3097;42.692;23.278;2023-07-31T03:27:10;18.73;;;14.37;;
6131;SDS011;3097;42.692;23.278;2023-07-31T03:29:35;20.50;;;14.47;;
6131;SDS011;3097;42.692;23.278;2023-07-31T03:32:01;18.57;;;13.80;;
6131;SDS011;3097;42.692;23.278;2023-07-31T03:34:26;18.20;;;14.80;;
6131;SDS011;3097;42.692;23.278;2023-07-31T03:36:51;20.63;;;15.00;;
6131;SDS011;3097;42.692;23.278;2023-07-31T03:39:18;20.93;;;15.30;;
6131;SDS011;3097;42.692;23.278;2023-07-31T03:41:43;19.50;;;14.40;;
6131;SDS011;3097;42.692;23.278;2023-07-31T03:44:09;23.37;;;16.87;;
6131;SDS011;3097;42.692;23.278;2023-07-31T03:46:34;23.07;;;15.33;;
6131;SDS011;3097;42.692;23.278;2023-07-31T03:49:01;20.33;;;15.50;;
6131;SDS011;3097;42.692;23.278;2023-07-31T03:51:26;20.90;;;15.07;;
6131;SDS011;3097;42.692;23.278;2023-07-31T03:53:52;19.77;;;14.40;;
6131;SDS011;3097;42.692;23.278;2023-07-31T03:56:17;18.53;;;14.63;;
6131;SDS011;3097;42.692;23.278;2023-07-31T03:58:43;20.60;;;14.47;;
6131;SDS011;3097;42.692;23.278;2023-07-31T04:01:08;22.00;;;15.37;;
6131;SDS011;3097;42.692;23.278;2023-07-31T04:03:34;19.83;;;14.40;;
6131;SDS011;3097;42.692;23.278;2023-07-31T04:05:59;21.63;;;14.90;;
6131;SDS011;3097;42.692;23.278;2023-07-31T04:08:24;21.93;;;15.93;;
6131;SDS011;3097;42.692;23.278;2023-07-31T04:10:50;19.27;;;13.93;;
6131;SDS011;3097;42.692;23.278;2023-07-31T04:13:15;24.77;;;16.70;;
6131;SDS011;3097;42.692;23.278;2023-07-31T04:15:41;21.83;;;14.90;;
6131;SDS011;3097;42.692;23.278;2023-07-31T04:18:06;19.73;;;14.23;;
6131;SDS011;3097;42.692;23.278;2023-07-31T04:20:32;21.87;;;15.30;;
6131;SDS011;3097;42.692;23.278;2023-07-31T04:22:57;21.17;;;15.03;;
6131;SDS011;3097;42.692;23.278;2023-07-31T04:25:23;21.33;;;15.07;;
6131;SDS011;3097;42.692;23.278;2023-07-31T04:27:48;21.40;;;15.20;;
6131;SDS011;3097;42.692;23.278;2023-07-31T04:30:14;23.90;;;16.10;;
6131;SDS011;3097;42.692;23.278;2023-07-31T04:32:39;21.87;;;14.87;;
6131;SDS011;3097;42.692;23.278;2023-07-31T04:35:05;21.43;;;16.03;;
6131;SDS011;3097;42.692;23.278;2023-07-31T04:37:30;19.87;;;14.33;;
6131;SDS011;3097;42.692;23.278;2023-07-31T04:39:56;21.87;;;15.07;;
6131;SDS011;3097;42.692;23.278;2023-07-31T04:42:22;19.33;;;14.23;;
6131;SDS011;3097;42.692;23.278;2023-07-31T04:44:47;19.23;;;14.83;;
6131;SDS011;3097;42.692;23.278;2023-07-31T04:47:13;22.53;;;14.43;;
6131;SDS011;3097;42.692;23.278;2023-07-31T04:49:38;20.33;;;14.90;;
6131;SDS011;3097;42.692;23.278;2023-07-31T04:52:04;20.03;;;14.80;;
6131;SDS011;3097;42.692;23.278;2023-07-31T04:54:29;18.20;;;13.33;;
6131;SDS011;3097;42.692;23.278;2023-07-31T04:56:55;18.50;;;13.90;;
6131;SDS011;3097;42.692;23.278;2023-07-31T04:59:20;17.40;;;13.40;;
6131;SDS011;3097;42.692;23.278;2023-07-31T05:01:46;15.73;;;12.80;;
6131;SDS011;3097;42.692;23.278;2023-07-31T05:04:14;17.03;;;13.87;;
6131;SDS011;3097;42.692;23.278;2023-07-31T05:06:40;15.83;;;12.70;;
6131;SDS011;3097;42.692;23.278;2023-07-31T05:09:06;16.60;;;13.70;;
6131;SDS011;3097;42.692;23.278;2023-07-31T05:11:32;15.63;;;12.43;;
6131;SDS011;3097;42.692;23.278;2023-07-31T05:13:57;13.60;;;12.20;;
6131;SDS011;3097;42.692;23.278;2023-07-31T05:16:23;15.00;;;12.50;;
6131;SDS011;3097;42.692;23.278;2023-07-31T05:18:48;14.33;;;11.63;;
6131;SDS011;3097;42.692;23.278;2023-07-31T05:21:13;13.03;;;11.60;;
6131;SDS011;3097;42.692;23.278;2023-07-31T05:23:39;12.73;;;11.33;;
6131;SDS011;3097;42.692;23.278;2023-07-31T05:26:05;13.20;;;11.47;;
6131;SDS011;3097;42.692;23.278;2023-07-31T05:28:31;12.93;;;11.07;;
6131;SDS011;3097;42.692;23.278;2023-07-31T05:31:05;13.27;;;11.17;;
6131;SDS011;3097;42.692;23.278;2023-07-31T05:33:31;12.23;;;10.93;;
6131;SDS011;3097;42.692;23.278;2023-07-31T05:35:57;10.70;;;9.60;;
6131;SDS011;3097;42.692;23.278;2023-07-31T05:38:23;10.20;;;9.27;;
6131;SDS011;3097;42.692;23.278;2023-07-31T05:40:48;10.77;;;9.67;;
6131;SDS011;3097;42.692;23.278;2023-07-31T05:43:14;9.73;;;8.73;;
6131;SDS011;3097;42.692;23.278;2023-07-31T05:45:39;9.47;;;8.57;;
6131;SDS011;3097;42.692;23.278;2023-07-31T05:48:05;8.73;;;7.60;;
6131;SDS011;3097;42.692;23.278;2023-07-31T05:50:31;8.07;;;7.27;;
6131;SDS011;3097;42.692;23.278;2023-07-31T05:52:56;8.33;;;7.53;;
6131;SDS011;3097;42.692;23.278;2023-07-31T05:55:22;7.90;;;7.10;;
6131;SDS011;3097;42.692;23.278;2023-07-31T05:57:48;8.53;;;6.73;;
6131;SDS011;3097;42.692;23.278;2023-07-31T06:00:14;6.73;;;6.23;;
6131;SDS011;3097;42.692;23.278;2023-07-31T06:02:39;6.17;;;5.67;;
6131;SDS011;3097;42.692;23.278;2023-07-31T06:05:05;6.43;;;5.80;;
6131;SDS011;3097;42.692;23.278;2023-07-31T06:07:31;5.97;;;5.50;;
6131;SDS011;3097;42.692;23.278;2023-07-31T06:09:57;5.63;;;5.23;;
6131;SDS011;3097;42.692;23.278;2023-07-31T06:12:28;5.53;;;5.00;;
6131;SDS011;3097;42.692;23.278;2023-07-31T06:14:53;5.37;;;4.97;;
6131;SDS011;3097;42.692;23.278;2023-07-31T06:17:19;5.70;;;5.30;;
6131;SDS011;3097;42.692;23.278;2023-07-31T06:19:44;5.50;;;5.10;;
6131;SDS011;3097;42.692;23.278;2023-07-31T06:22:10;4.97;;;4.60;;
6131;SDS011;3097;42.692;23.278;2023-07-31T06:24:35;5.57;;;4.97;;
6131;SDS011;3097;42.692;23.278;2023-07-31T06:27:01;7.40;;;5.37;;
6131;SDS011;3097;42.692;23.278;2023-07-31T06:29:29;5.70;;;5.30;;
6131;SDS011;3097;42.692;23.278;2023-07-31T06:31:54;5.40;;;5.00;;
6131;SDS011;3097;42.692;23.278;2023-07-31T06:34:20;5.57;;;5.17;;
6131;SDS011;3097;42.692;23.278;2023-07-31T06:36:45;5.77;;;4.90;;
6131;SDS011;3097;42.692;23.278;2023-07-31T06:39:11;5.07;;;4.67;;
6131;SDS011;3097;42.692;23.278;2023-07-31T06:41:36;4.50;;;4.20;;
6131;SDS011;3097;42.692;23.278;2023-07-31T06:44:03;5.90;;;4.57;;
6131;SDS011;3097;42.692;23.278;2023-07-31T06:46:28;5.00;;;4.60;;
6131;SDS011;3097;42.692;23.278;2023-07-31T06:48:53;4.60;;;4.30;;
6131;SDS011;3097;42.692;23.278;2023-07-31T06:51:19;4.30;;;4.00;;
6131;SDS011;3097;42.692;23.278;2023-07-31T06:53:45;4.80;;;4.40;;
6131;SDS011;3097;42.692;23.278;2023-07-31T06:56:10;3.97;;;3.70;;
6131;SDS011;3097;42.692;23.278;2023-07-31T06:58:36;4.30;;;4.00;;
6131;SDS011;3097;42.692;23.278;2023-07-31T07:01:01;4.27;;;3.97;;
6131;SDS011;3097;42.692;23.278;2023-07-31T07:03:27;4.30;;;4.00;;
6131;SDS011;3097;42.692;23.278;2023-07-31T07:05:52;15.50;;;10.40;;
6131;SDS011;3097;42.692;23.278;2023-07-31T07:08:17;10.07;;;8.87;;
6131;SDS011;3097;42.692;23.278;2023-07-31T07:10:43;5.77;;;5.27;;
6131;SDS011;3097;42.692;23.278;2023-07-31T07:13:08;5.30;;;4.80;;
6131;SDS011;3097;42.692;23.278;2023-07-31T07:15:34;4.47;;;4.17;;
6131;SDS011;3097;42.692;23.278;2023-07-31T07:18:00;4.20;;;3.90;;
6131;SDS011;3097;42.692;23.278;2023-07-31T07:20:25;3.73;;;3.43;;
6131;SDS011;3097;42.692;23.278;2023-07-31T07:22:51;3.90;;;3.70;;
6131;SDS011;3097;42.692;23.278;2023-07-31T07:25:16;3.43;;;3.23;;
6131;SDS011;3097;42.692;23.278;2023-07-31T07:27:42;4.07;;;3.60;;
6131;SDS011;3097;42.692;23.278;2023-07-31T07:30:07;4.30;;;4.00;;
6131;SDS011;3097;42.692;23.278;2023-07-31T07:32:33;3.97;;;3.67;;
6131;SDS011;3097;42.692;23.278;2023-07-31T07:34:59;4.70;;;4.30;;
6131;SDS011;3097;42.692;23.278;2023-07-31T07:37:24;3.60;;;3.40;;
6131;SDS011;3097;42.692;23.278;2023-07-31T07:39:50;4.13;;;3.83;;
6131;SDS011;3097;42.692;23.278;2023-07-31T07:42:15;5.00;;;4.60;;
6131;SDS011;3097;42.692;23.278;2023-07-31T07:44:41;3.90;;;3.70;;
6131;SDS011;3097;42.692;23.278;2023-07-31T07:47:06;3.47;;;3.27;;
6131;SDS011;3097;42.692;23.278;2023-07-31T07:49:32;3.50;;;3.20;;
6131;SDS011;3097;42.692;23.278;2023-07-31T07:52:01;3.00;;;2.80;;
6131;SDS011;3097;42.692;23.278;2023-07-31T07:54:27;2.97;;;2.77;;
6131;SDS011;3097;42.692;23.278;2023-07-31T07:56:52;3.30;;;3.10;;
6131;SDS011;3097;42.692;23.278;2023-07-31T07:59:18;4.10;;;3.40;;
6131;SDS011;3097;42.692;23.278;2023-07-31T08:01:43;3.77;;;3.50;;
6131;SDS011;3097;42.692;23.278;2023-07-31T08:04:09;4.00;;;3.80;;
6131;SDS011;3097;42.692;23.278;2023-07-31T08:06:34;3.90;;;3.60;;
6131;SDS011;3097;42.692;23.278;2023-07-31T08:09:00;3.77;;;3.47;;
6131;SDS011;3097;42.692;23.278;2023-07-31T08:11:30;3.80;;;3.60;;
6131;SDS011;3097;42.692;23.278;2023-07-31T08:13:56;3.50;;;3.30;;
6131;SDS011;3097;42.692;23.278;2023-07-31T08:16:21;3.50;;;3.30;;
6131;SDS011;3097;42.692;23.278;2023-07-31T08:18:47;3.23;;;3.03;;
6131;SDS011;3097;42.692;23.278;2023-07-31T08:21:15;3.80;;;3.50;;
6131;SDS011;3097;42.692;23.278;2023-07-31T08:23:40;3.77;;;3.50;;
6131;SDS011;3097;42.692;23.278;2023-07-31T08:26:06;4.33;;;4.03;;
6131;SDS011;3097;42.692;23.278;2023-07-31T08:28:32;5.53;;;4.13;;
6131;SDS011;3097;42.692;23.278;2023-07-31T08:30:57;3.60;;;3.10;;
6131;SDS011;3097;42.692;23.278;2023-07-31T08:33:22;3.90;;;3.60;;
6131;SDS011;3097;42.692;23.278;2023-07-31T08:35:48;3.40;;;3.20;;
6131;SDS011;3097;42.692;23.278;2023-07-31T08:38:13;4.10;;;3.83;;
6131;SDS011;3097;42.692;23.278;2023-07-31T08:40:39;3.60;;;3.30;;
6131;SDS011;3097;42.692;23.278;2023-07-31T08:43:04;3.30;;;3.10;;
6131;SDS011;3097;42.692;23.278;2023-07-31T08:45:30;3.63;;;3.43;;
6131;SDS011;3097;42.692;23.278;2023-07-31T08:47:57;3.63;;;3.43;;
6131;SDS011;3097;42.692;23.278;2023-07-31T08:50:24;3.67;;;3.47;;
6131;SDS011;3097;42.692;23.278;2023-07-31T08:52:50;3.50;;;3.20;;
6131;SDS011;3097;42.692;23.278;2023-07-31T08:55:16;3.17;;;2.97;;
6131;SDS011;3097;42.692;23.278;2023-07-31T08:57:42;3.60;;;3.30;;
6131;SDS011;3097;42.692;23.278;2023-07-31T09:00:09;3.17;;;2.97;;
6131;SDS011;3097;42.692;23.278;2023-07-31T09:05:32;3.60;;;3.30;;
6131;SDS011;3097;42.692;23.278;2023-07-31T09:07:58;3.53;;;3.23;;
6131;SDS011;3097;42.692;23.278;2023-07-31T09:10:27;3.10;;;2.90;;
6131;SDS011;3097;42.692;23.278;2023-07-31T09:12:52;2.80;;;2.70;;
6131;SDS011;3097;42.692;23.278;2023-07-31T09:15:18;4.23;;;3.30;;
6131;SDS011;3097;42.692;23.278;2023-07-31T09:17:44;3.33;;;3.13;;
6131;SDS011;3097;42.692;23.278;2023-07-31T09:20:16;4.33;;;3.30;;
6131;SDS011;3097;42.692;23.278;2023-07-31T09:22:43;3.77;;;3.47;;
6131;SDS011;3097;42.692;23.278;2023-07-31T09:25:16;3.50;;;3.30;;
6131;SDS011;3097;42.692;23.278;2023-07-31T09:27:46;3.87;;;3.50;;
6131;SDS011;3097;42.692;23.278;2023-07-31T09:30:13;3.47;;;3.27;;
6131;SDS011;3097;42.692;23.278;2023-07-31T09:32:39;3.90;;;3.70;;
6131;SDS011;3097;42.692;23.278;2023-07-31T09:35:21;3.40;;;3.10;;
6131;SDS011;3097;42.692;23.278;2023-07-31T09:37:55;3.57;;;3.27;;
6131;SDS011;3097;42.692;23.278;2023-07-31T09:40:30;3.57;;;3.27;;
6131;SDS011;3097;42.692;23.278;2023-07-31T09:43:00;4.40;;;4.00;;
6131;SDS011;3097;42.692;23.278;2023-07-31T09:45:26;4.40;;;2.90;;
6131;SDS011;3097;42.692;23.278;2023-07-31T09:47:53;3.07;;;2.77;;
6131;SDS011;3097;42.692;23.278;2023-07-31T09:50:23;2.90;;;2.70;;
6131;SDS011;3097;42.692;23.278;2023-07-31T09:52:50;3.10;;;2.90;;
6131;SDS011;3097;42.692;23.278;2023-07-31T09:55:17;3.30;;;2.90;;
6131;SDS011;3097;42.692;23.278;2023-07-31T09:57:44;3.27;;;3.07;;
6131;SDS011;3097;42.692;23.278;2023-07-31T10:00:14;3.20;;;2.90;;
6131;SDS011;3097;42.692;23.278;2023-07-31T10:02:42;2.67;;;2.57;;
6131;SDS011;3097;42.692;23.278;2023-07-31T10:05:12;2.83;;;2.60;;
6131;SDS011;3097;42.692;23.278;2023-07-31T10:07:40;4.63;;;2.50;;
6131;SDS011;3097;42.692;23.278;2023-07-31T10:10:08;2.80;;;2.70;;
6131;SDS011;3097;42.692;23.278;2023-07-31T10:12:34;3.50;;;2.47;;
6131;SDS011;3097;42.692;23.278;2023-07-31T10:15:01;2.70;;;2.60;;
6131;SDS011;3097;42.692;23.278;2023-07-31T10:17:27;2.30;;;2.20;;
6131;SDS011;3097;42.692;23.278;2023-07-31T10:19:55;3.13;;;2.80;;
6131;SDS011;3097;42.692;23.278;2023-07-31T10:22:22;2.57;;;2.23;;
6131;SDS011;3097;42.692;23.278;2023-07-31T10:24:48;3.53;;;2.80;;
6131;SDS011;3097;42.692;23.278;2023-07-31T10:27:15;2.77;;;2.67;;
6131;SDS011;3097;42.692;23.278;2023-07-31T10:29:41;2.70;;;2.43;;
6131;SDS011;3097;42.692;23.278;2023-07-31T10:32:08;3.27;;;3.07;;
6131;SDS011;3097;42.692;23.278;2023-07-31T10:34:36;2.50;;;2.40;;
6131;SDS011;3097;42.692;23.278;2023-07-31T10:37:19;2.83;;;2.63;;
6131;SDS011;3097;42.692;23.278;2023-07-31T10:40:05;2.73;;;2.57;;
6131;SDS011;3097;42.692;23.278;2023-07-31T10:42:51;3.70;;;3.43;;
6131;SDS011;3097;42.692;23.278;2023-07-31T10:45:37;3.10;;;2.80;;
6131;SDS011;3097;42.692;23.278;2023-07-31T10:50:37;2.50;;;2.40;;
6131;SDS011;3097;42.692;23.278;2023-07-31T10:53:04;2.60;;;2.40;;
6131;SDS011;3097;42.692;23.278;2023-07-31T10:55:33;2.63;;;2.43;;
6131;SDS011;3097;42.692;23.278;2023-07-31T11:00:32;23.98;;;3.92;;
6131;SDS011;3097;42.692;23.278;2023-07-31T11:05:50;2.33;;;2.23;;
6131;SDS011;3097;42.692;23.278;2023-07-31T11:13:31;2.60;;;2.50;;
6131;SDS011;3097;42.692;23.278;2023-07-31T11:16:09;2.30;;;2.20;;
6131;SDS011;3097;42.692;23.278;2023-07-31T11:18:37;2.53;;;2.30;;
6131;SDS011;3097;42.692;23.278;2023-07-31T11:21:04;2.50;;;2.00;;
6131;SDS011;3097;42.692;23.278;2023-07-31T11:23:30;2.13;;;2.03;;
6131;SDS011;3097;42.692;23.278;2023-07-31T11:25:58;2.00;;;1.90;;
6131;SDS011;3097;42.692;23.278;2023-07-31T11:28:24;2.30;;;2.20;;
6131;SDS011;3097;42.692;23.278;2023-07-31T11:30:50;2.00;;;1.90;;
6131;SDS011;3097;42.692;23.278;2023-07-31T11:33:15;2.50;;;2.40;;
6131;SDS011;3097;42.692;23.278;2023-07-31T11:38:10;2.77;;;2.67;;
6131;SDS011;3097;42.692;23.278;2023-07-31T11:40:49;7.13;;;6.63;;
6131;SDS011;3097;42.692;23.278;2023-07-31T11:43:15;2.83;;;2.60;;
6131;SDS011;3097;42.692;23.278;2023-07-31T11:45:45;2.70;;;2.50;;
6131;SDS011;3097;42.692;23.278;2023-07-31T11:48:45;2.80;;;2.60;;
6131;SDS011;3097;42.692;23.278;2023-07-31T11:51:05;3.30;;;3.10;;
6131;SDS011;3097;42.692;23.278;2023-07-31T11:53:37;3.60;;;2.90;;
6131;SDS011;3097;42.692;23.278;2023-07-31T11:56:07;3.47;;;3.23;;
6131;SDS011;3097;42.692;23.278;2023-07-31T11:58:35;3.97;;;3.37;;
6131;SDS011;3097;42.692;23.278;2023-07-31T12:01:02;3.70;;;3.50;;
6131;SDS011;3097;42.692;23.278;2023-07-31T12:03:28;3.80;;;3.60;;
6131;SDS011;3097;42.692;23.278;2023-07-31T12:05:53;4.87;;;4.40;;
6131;SDS011;3097;42.692;23.278;2023-07-31T12:08:22;4.60;;;4.30;;
6131;SDS011;3097;42.692;23.278;2023-07-31T12:10:52;5.90;;;5.50;;
6131;SDS011;3097;42.692;23.278;2023-07-31T12:13:22;4.60;;;4.20;;
6131;SDS011;3097;42.692;23.278;2023-07-31T12:15:53;5.60;;;5.20;;
6131;SDS011;3097;42.692;23.278;2023-07-31T12:18:21;5.70;;;5.30;;
6131;SDS011;3097;42.692;23.278;2023-07-31T12:20:57;5.63;;;5.23;;
6131;SDS011;3097;42.692;23.278;2023-07-31T12:23:25;4.90;;;4.50;;
6131;SDS011;3097;42.692;23.278;2023-07-31T12:26:01;5.73;;;4.67;;
6131;SDS011;3097;42.692;23.278;2023-07-31T12:28:30;4.27;;;3.93;;
6131;SDS011;3097;42.692;23.278;2023-07-31T12:30:59;4.57;;;4.07;;
6131;SDS011;3097;42.692;23.278;2023-07-31T12:33:30;4.13;;;3.83;;
6131;SDS011;3097;42.692;23.278;2023-07-31T12:35:57;4.63;;;4.33;;
6131;SDS011;3097;42.692;23.278;2023-07-31T12:38:23;4.67;;;4.37;;
6131;SDS011;3097;42.692;23.278;2023-07-31T12:40:48;4.80;;;4.50;;
6131;SDS011;3097;42.692;23.278;2023-07-31T12:43:14;4.90;;;4.60;;
6131;SDS011;3097;42.692;23.278;2023-07-31T12:45:39;4.80;;;4.50;;
6131;SDS011;3097;42.692;23.278;2023-07-31T12:48:04;5.40;;;5.00;;
6131;SDS011;3097;42.692;23.278;2023-07-31T12:50:30;5.40;;;5.10;;
6131;SDS011;3097;42.692;23.278;2023-07-31T12:52:56;5.47;;;4.80;;
6131;SDS011;3097;42.692;23.278;2023-07-31T12:55:22;4.67;;;4.37;;
6131;SDS011;3097;42.692;23.278;2023-07-31T12:57:48;5.13;;;4.83;;
6131;SDS011;3097;42.692;23.278;2023-07-31T13:00:15;6.07;;;5.43;;
6131;SDS011;3097;42.692;23.278;2023-07-31T13:02:41;6.33;;;5.60;;
6131;SDS011;3097;42.692;23.278;2023-07-31T13:05:06;6.70;;;5.47;;
6131;SDS011;3097;42.692;23.278;2023-07-31T13:07:31;6.23;;;5.83;;
6131;SDS011;3097;42.692;23.278;2023-07-31T13:09:57;5.87;;;5.47;;
6131;SDS011;3097;42.692;23.278;2023-07-31T13:12:22;5.60;;;5.20;;
6131;SDS011;3097;42.692;23.278;2023-07-31T13:14:48;5.27;;;4.97;;
6131;SDS011;3097;42.692;23.278;2023-07-31T13:17:13;5.70;;;5.20;;
6131;SDS011;3097;42.692;23.278;2023-07-31T13:19:38;5.53;;;5.03;;
6131;SDS011;3097;42.692;23.278;2023-07-31T13:22:04;5.40;;;4.90;;
6131;SDS011;3097;42.692;23.278;2023-07-31T13:24:29;4.53;;;4.27;;
6131;SDS011;3097;42.692;23.278;2023-07-31T13:26:55;4.83;;;4.53;;
6131;SDS011;3097;42.692;23.278;2023-07-31T13:29:21;4.60;;;4.20;;
6131;SDS011;3097;42.692;23.278;2023-07-31T13:31:47;5.43;;;5.03;;
6131;SDS011;3097;42.692;23.278;2023-07-31T13:34:13;4.83;;;4.43;;
6131;SDS011;3097;42.692;23.278;2023-07-31T13:36:38;5.20;;;4.90;;
6131;SDS011;3097;42.692;23.278;2023-07-31T13:39:03;5.00;;;4.70;;
6131;SDS011;3097;42.692;23.278;2023-07-31T13:41:29;4.50;;;4.10;;
6131;SDS011;3097;42.692;23.278;2023-07-31T13:43:54;4.80;;;4.40;;
6131;SDS011;3097;42.692;23.278;2023-07-31T13:46:20;4.70;;;4.30;;
6131;SDS011;3097;42.692;23.278;2023-07-31T13:48:45;4.50;;;4.10;;
6131;SDS011;3097;42.692;23.278;2023-07-31T13:51:11;4.70;;;4.27;;
6131;SDS011;3097;42.692;23.278;2023-07-31T13:53:36;4.30;;;3.90;;
6131;SDS011;3097;42.692;23.278;2023-07-31T13:56:02;4.40;;;4.10;;
6131;SDS011;3097;42.692;23.278;2023-07-31T13:58:27;4.23;;;3.93;;
6131;SDS011;3097;42.692;23.278;2023-07-31T14:00:53;4.37;;;4.07;;
6131;SDS011;3097;42.692;23.278;2023-07-31T14:03:18;4.20;;;3.90;;
6131;SDS011;3097;42.692;23.278;2023-07-31T14:05:44;4.37;;;4.07;;
6131;SDS011;3097;42.692;23.278;2023-07-31T14:08:09;4.50;;;4.20;;
6131;SDS011;3097;42.692;23.278;2023-07-31T14:10:35;4.00;;;3.80;;
6131;SDS011;3097;42.692;23.278;2023-07-31T14:13:00;5.13;;;4.60;;
6131;SDS011;3097;42.692;23.278;2023-07-31T14:15:25;4.50;;;4.20;;
6131;SDS011;3097;42.692;23.278;2023-07-31T14:17:51;4.80;;;4.47;;
6131;SDS011;3097;42.692;23.278;2023-07-31T14:20:16;4.57;;;4.27;;
6131;SDS011;3097;42.692;23.278;2023-07-31T14:22:42;4.33;;;4.00;;
6131;SDS011;3097;42.692;23.278;2023-07-31T14:25:08;4.20;;;4.00;;
6131;SDS011;3097;42.692;23.278;2023-07-31T14:27:35;4.40;;;4.10;;
6131;SDS011;3097;42.692;23.278;2023-07-31T14:30:01;4.53;;;4.10;;
6131;SDS011;3097;42.692;23.278;2023-07-31T14:32:27;4.70;;;3.90;;
6131;SDS011;3097;42.692;23.278;2023-07-31T14:34:53;4.13;;;3.77;;
6131;SDS011;3097;42.692;23.278;2023-07-31T14:37:19;4.97;;;3.70;;
6131;SDS011;3097;42.692;23.278;2023-07-31T14:39:45;4.50;;;4.20;;
6131;SDS011;3097;42.692;23.278;2023-07-31T14:42:10;4.30;;;4.03;;
6131;SDS011;3097;42.692;23.278;2023-07-31T14:44:35;3.87;;;3.67;;
6131;SDS011;3097;42.692;23.278;2023-07-31T14:47:01;3.87;;;3.67;;
6131;SDS011;3097;42.692;23.278;2023-07-31T14:49:26;4.30;;;3.90;;
6131;SDS011;3097;42.692;23.278;2023-07-31T14:51:55;4.40;;;4.00;;
6131;SDS011;3097;42.692;23.278;2023-07-31T14:54:20;4.47;;;4.20;;
6131;SDS011;3097;42.692;23.278;2023-07-31T14:56:46;4.10;;;3.80;;
6131;SDS011;3097;42.692;23.278;2023-07-31T14:59:11;4.73;;;4.20;;
6131;SDS011;3097;42.692;23.278;2023-07-31T15:01:37;4.10;;;3.77;;
6131;SDS011;3097;42.692;23.278;2023-07-31T15:04:03;4.17;;;3.87;;
6131;SDS011;3097;42.692;23.278;2023-07-31T15:06:28;3.60;;;3.40;;
6131;SDS011;3097;42.692;23.278;2023-07-31T15:08:53;5.03;;;3.40;;
6131;SDS011;3097;42.692;23.278;2023-07-31T15:11:19;3.67;;;3.47;;
6131;SDS011;3097;42.692;23.278;2023-07-31T15:13:44;3.80;;;3.60;;
6131;SDS011;3097;42.692;23.278;2023-07-31T15:16:10;4.20;;;3.57;;